Time;durP1;ratioP1;P1;durP2;ratioP2;P2;SDS_P1;SDS_P2;PMS_P1;PMS_P2;Temp;Humidity;BMP_temperature;BMP_pressure;BME280_temperature;BME280_humidity;BME280_pressure;Samples;Min_cycle;Max_cycle;Signal;HPM_P1;HPM_P2
2021/11/17 02:26:07;;;;;;;21.23;4.75;;;;;;;;;;4942887;29;20087;-77
2021/11/17 02:28:46;;;;;;;21.80;5.10;;;;;;;;;;4926784;29;20031;-77
2021/11/17 02:31:22;;;;;;;23.65;5.53;;;;;;;;;;4942894;29;20110;-77
2021/11/17 02:33:57;;;;;;;24.00;6.82;;;;;;;;;;4943875;29;20031;-76
2021/11/17 02:36:29;;;;;;;18.33;5.40;;;;;;;;;;4943263;29;20042;-77
2021/11/17 02:39:05;;;;;;;19.27;5.13;;;;;;;;;;4926919;29;20137;-77
2021/11/17 02:41:43;;;;;;;21.95;5.90;;;;;;;;;;4944773;29;20427;-77
2021/11/17 02:44:10;;;;;;;13.10;5.55;;;;;;;;;;4927131;29;20024;-77
2021/11/17 02:46:54;;;;;;;12.90;4.90;;;;;;;;;;4942922;29;20028;-77
2021/11/17 02:49:36;;;;;;;29.95;5.82;;;;;;;;;;4926081;29;20028;-77
2021/11/17 02:52:05;;;;;;;16.92;5.30;;;;;;;;;;4940829;29;20032;-77
2021/11/17 02:54:34;;;;;;;16.25;5.43;;;;;;;;;;4946958;29;20034;-77
2021/11/17 02:57:00;;;;;;;19.63;6.68;;;;;;;;;;4945806;29;20032;-76
2021/11/17 02:59:38;;;;;;;21.67;5.95;;;;;;;;;;4944227;29;20075;-75
2021/11/17 03:02:14;;;;;;;20.00;6.25;;;;;;;;;;4944537;29;20024;-76
2021/11/17 03:04:47;;;;;;;23.85;5.32;;;;;;;;;;4944441;29;20024;-76
2021/11/17 03:07:19;;;;;;;21.35;6.15;;;;;;;;;;4909568;29;20043;-77
2021/11/17 03:09:51;;;;;;;23.80;5.78;;;;;;;;;;4928290;29;20091;-76
2021/11/17 03:12:17;;;;;;;12.25;4.40;;;;;;;;;;4926860;29;20099;-76
2021/11/17 03:14:52;;;;;;;20.00;5.53;;;;;;;;;;4938638;29;20035;-76
2021/11/17 03:17:18;;;;;;;17.58;5.82;;;;;;;;;;4948129;29;20479;-76
2021/11/17 03:20:04;;;;;;;18.88;5.22;;;;;;;;;;4946557;29;20035;-77
2021/11/17 03:22:34;;;;;;;18.08;4.72;;;;;;;;;;4926965;29;20123;-79
2021/11/17 03:25:00;;;;;;;16.90;4.60;;;;;;;;;;4942761;29;20032;-76
2021/11/17 03:27:26;;;;;;;15.10;4.45;;;;;;;;;;4946926;29;20115;-77
2021/11/17 03:30:03;;;;;;;19.55;4.97;;;;;;;;;;4945795;29;20471;-76
2021/11/17 03:32:36;;;;;;;17.90;5.32;;;;;;;;;;4929444;29;20028;-77
2021/11/17 03:35:24;;;;;;;19.00;5.07;;;;;;;;;;4928751;29;20039;-76
2021/11/17 03:38:07;;;;;;;16.77;4.78;;;;;;;;;;4929620;29;20036;-77
2021/11/17 03:40:36;;;;;;;16.38;5.20;;;;;;;;;;4946604;29;20020;-78
2021/11/17 03:43:09;;;;;;;23.45;6.25;;;;;;;;;;4946412;29;20024;-76
2021/11/17 03:46:01;;;;;;;16.90;4.43;;;;;;;;;;4946131;29;20023;-76
2021/11/17 03:48:27;;;;;;;25.42;4.55;;;;;;;;;;4910263;29;20040;-77
2021/11/17 03:50:56;;;;;;;19.10;5.13;;;;;;;;;;4946410;29;20026;-76
2021/11/17 03:53:31;;;;;;;19.67;5.60;;;;;;;;;;4945473;29;20028;-76
2021/11/17 03:56:07;;;;;;;22.02;4.75;;;;;;;;;;4945547;29;20047;-77
2021/11/17 03:58:33;;;;;;;19.92;6.55;;;;;;;;;;4945304;29;20048;-77
2021/11/17 04:01:02;;;;;;;24.52;5.45;;;;;;;;;;4945939;29;20032;-76
2021/11/17 04:03:31;;;;;;;24.60;5.55;;;;;;;;;;4945761;29;20107;-77
2021/11/17 04:06:21;;;;;;;25.20;4.93;;;;;;;;;;4945892;29;20031;-77
2021/11/17 04:08:57;;;;;;;17.80;4.88;;;;;;;;;;4937009;29;20056;-77
2021/11/17 04:11:36;;;;;;;14.20;6.13;;;;;;;;;;4946233;29;20427;-77
2021/11/17 04:14:05;;;;;;;19.60;4.13;;;;;;;;;;4945514;29;20024;-76
2021/11/17 04:16:37;;;;;;;20.13;5.70;;;;;;;;;;4929229;29;20444;-79
2021/11/17 04:19:06;;;;;;;27.27;4.95;;;;;;;;;;4946484;29;20432;-76
2021/11/17 04:21:47;;;;;;;15.82;4.63;;;;;;;;;;4947353;29;20032;-78
2021/11/17 04:24:30;;;;;;;22.00;4.88;;;;;;;;;;4927230;29;20032;-78
2021/11/17 04:27:06;;;;;;;15.95;4.38;;;;;;;;;;4925891;29;20032;-76
2021/11/17 04:29:51;;;;;;;20.48;3.90;;;;;;;;;;4946760;29;20024;-78
2021/11/17 04:32:23;;;;;;;17.30;4.30;;;;;;;;;;4928762;29;20035;-79
2021/11/17 04:35:12;;;;;;;21.25;5.75;;;;;;;;;;4945546;29;20028;-78
2021/11/17 04:38:02;;;;;;;17.10;5.00;;;;;;;;;;4935331;29;20067;-78
2021/11/17 04:40:48;;;;;;;17.73;5.43;;;;;;;;;;4932886;29;20038;-78
2021/11/17 04:43:14;;;;;;;13.60;4.28;;;;;;;;;;4945437;29;20106;-77
2021/11/17 04:45:59;;;;;;;22.13;4.40;;;;;;;;;;4945542;29;20566;-76
2021/11/17 04:48:31;;;;;;;18.17;5.10;;;;;;;;;;4944940;29;20030;-78
2021/11/17 04:51:03;;;;;;;12.40;4.10;;;;;;;;;;4945097;29;20067;-78
2021/11/17 04:53:43;;;;;;;14.88;4.75;;;;;;;;;;4928271;29;20059;-76
2021/11/17 04:56:22;;;;;;;15.75;4.47;;;;;;;;;;4944768;29;20031;-76
2021/11/17 04:58:51;;;;;;;17.45;4.60;;;;;;;;;;4926877;29;20043;-77
2021/11/17 05:01:23;;;;;;;20.15;7.45;;;;;;;;;;4944872;29;20028;-77
2021/11/17 05:04:05;;;;;;;28.48;6.15;;;;;;;;;;4944827;29;20022;-78
2021/11/17 05:06:34;;;;;;;15.38;4.97;;;;;;;;;;4944490;29;20028;-77
2021/11/17 05:09:15;;;;;;;15.68;4.40;;;;;;;;;;4944282;29;20037;-77
2021/11/17 05:11:41;;;;;;;16.75;4.90;;;;;;;;;;4944015;29;20028;-78
2021/11/17 05:14:19;;;;;;;23.05;5.50;;;;;;;;;;4944675;29;20029;-77
2021/11/17 05:16:45;;;;;;;15.30;3.92;;;;;;;;;;4944687;29;20053;-77
2021/11/17 05:19:15;;;;;;;16.73;4.43;;;;;;;;;;4943756;29;20126;-77
2021/11/17 05:21:50;;;;;;;19.10;5.40;;;;;;;;;;4944699;29;20054;-77
2021/11/17 05:24:25;;;;;;;19.77;5.47;;;;;;;;;;4944955;29;20024;-78
2021/11/17 05:26:51;;;;;;;12.65;4.75;;;;;;;;;;4946028;29;20107;-78
2021/11/17 05:29:17;;;;;;;23.40;4.82;;;;;;;;;;4945539;29;20031;-76
2021/11/17 05:31:56;;;;;;;16.85;5.18;;;;;;;;;;4945310;29;20024;-77
2021/11/17 05:34:41;;;;;;;18.20;4.47;;;;;;;;;;4927462;29;20091;-76
2021/11/17 05:37:12;;;;;;;20.15;5.28;;;;;;;;;;4944627;29;20415;-80
2021/11/17 05:39:45;;;;;;;25.73;4.88;;;;;;;;;;4943845;29;20039;-76
2021/11/17 05:42:11;;;;;;;22.70;5.18;;;;;;;;;;4927819;29;20051;-77
2021/11/17 05:44:37;;;;;;;13.85;3.33;;;;;;;;;;4944413;29;20089;-77
2021/11/17 05:47:18;;;;;;;22.80;4.68;;;;;;;;;;4943948;29;20047;-78
2021/11/17 05:49:50;;;;;;;14.60;4.00;;;;;;;;;;4944181;29;20024;-78
2021/11/17 05:52:22;;;;;;;24.85;4.68;;;;;;;;;;4944937;29;20506;-77
2021/11/17 05:55:03;;;;;;;16.77;5.03;;;;;;;;;;4944840;29;20023;-77
2021/11/17 05:57:29;;;;;;;16.77;4.05;;;;;;;;;;4944534;29;20414;-76
2021/11/17 06:00:06;;;;;;;21.50;4.25;;;;;;;;;;4944987;29;20483;-77
2021/11/17 06:02:50;;;;;;;22.77;5.55;;;;;;;;;;4928162;29;20031;-78
2021/11/17 06:05:16;;;;;;;17.33;5.38;;;;;;;;;;4944466;29;20027;-77
2021/11/17 06:07:42;;;;;;;27.40;5.95;;;;;;;;;;4944289;29;20505;-77
2021/11/17 06:10:13;;;;;;;23.33;4.80;;;;;;;;;;4944459;29;20090;-76
2021/11/17 06:12:39;;;;;;;22.30;5.60;;;;;;;;;;4945042;29;20028;-77
2021/11/17 06:15:07;;;;;;;18.42;4.97;;;;;;;;;;4944868;29;20032;-77
2021/11/17 06:17:34;;;;;;;14.88;4.60;;;;;;;;;;4943931;29;20024;-78
2021/11/17 06:20:00;;;;;;;17.42;4.60;;;;;;;;;;4943691;29;20031;-76
2021/11/17 06:22:31;;;;;;;20.60;4.93;;;;;;;;;;4943050;29;20023;-78
2021/11/17 06:25:00;;;;;;;19.30;6.32;;;;;;;;;;4944373;29;20043;-76
2021/11/17 06:27:28;;;;;;;17.05;4.72;;;;;;;;;;4943953;29;20028;-76
2021/11/17 06:29:58;;;;;;;16.88;5.03;;;;;;;;;;4943352;29;20091;-77
2021/11/17 06:32:24;;;;;;;23.67;4.57;;;;;;;;;;4943762;29;20116;-77
2021/11/17 06:34:53;;;;;;;23.15;6.57;;;;;;;;;;4943716;29;20024;-76
2021/11/17 06:37:20;;;;;;;17.13;5.43;;;;;;;;;;4943744;29;20024;-77
2021/11/17 06:39:48;;;;;;;17.30;5.55;;;;;;;;;;4943349;29;20062;-77
2021/11/17 06:42:15;;;;;;;22.25;5.05;;;;;;;;;;4943778;29;20059;-79
2021/11/17 06:44:42;;;;;;;16.67;4.85;;;;;;;;;;4944185;29;20024;-77
2021/11/17 06:47:08;;;;;;;18.73;4.75;;;;;;;;;;4944184;29;20035;-76
2021/11/17 06:49:35;;;;;;;18.13;4.55;;;;;;;;;;4943260;29;20031;-77
2021/11/17 06:52:01;;;;;;;14.23;3.92;;;;;;;;;;4944153;29;20019;-77
2021/11/17 06:54:27;;;;;;;20.67;4.35;;;;;;;;;;4942865;29;20039;-75
2021/11/17 06:56:53;;;;;;;13.52;3.88;;;;;;;;;;4942714;29;20031;-78
2021/11/17 06:59:20;;;;;;;17.95;4.60;;;;;;;;;;4943079;29;20052;-77
2021/11/17 07:01:46;;;;;;;20.95;4.13;;;;;;;;;;4943001;29;20459;-77
2021/11/17 07:04:12;;;;;;;13.75;4.00;;;;;;;;;;4942321;29;20554;-76
2021/11/17 07:06:38;;;;;;;16.42;3.85;;;;;;;;;;4942807;29;20079;-77
2021/11/17 07:09:07;;;;;;;23.17;5.38;;;;;;;;;;4943686;29;20086;-76
2021/11/17 07:11:37;;;;;;;24.38;6.22;;;;;;;;;;4943474;29;20471;-76
2021/11/17 07:14:07;;;;;;;18.42;5.10;;;;;;;;;;4925922;29;20038;-76
2021/11/17 07:16:34;;;;;;;14.98;3.72;;;;;;;;;;4942923;29;20028;-78
2021/11/17 07:19:02;;;;;;;15.73;4.88;;;;;;;;;;4943374;29;20028;-77
2021/11/17 07:21:28;;;;;;;16.60;4.22;;;;;;;;;;4943036;29;20537;-77
2021/11/17 07:23:54;;;;;;;15.65;4.65;;;;;;;;;;4943027;29;20102;-76
2021/11/17 07:26:20;;;;;;;11.63;4.88;;;;;;;;;;4943406;29;20048;-76
2021/11/17 07:28:46;;;;;;;13.15;3.65;;;;;;;;;;4943347;29;20047;-77
2021/11/17 07:31:13;;;;;;;16.98;3.97;;;;;;;;;;4942459;29;20031;-75
2021/11/17 07:33:39;;;;;;;12.27;4.20;;;;;;;;;;4943115;29;20111;-76
2021/11/17 07:36:05;;;;;;;12.93;4.28;;;;;;;;;;4943397;29;20053;-76
2021/11/17 07:38:32;;;;;;;20.05;4.78;;;;;;;;;;4943264;29;20031;-76
2021/11/17 07:40:58;;;;;;;12.48;4.35;;;;;;;;;;4925799;29;20063;-76
2021/11/17 07:43:26;;;;;;;11.20;4.65;;;;;;;;;;4943211;29;20028;-76
2021/11/17 07:45:53;;;;;;;18.70;3.97;;;;;;;;;;4943114;29;20024;-76
2021/11/17 07:48:20;;;;;;;17.55;4.18;;;;;;;;;;4943154;29;20114;-78
2021/11/17 07:50:47;;;;;;;14.77;3.80;;;;;;;;;;4926454;29;20472;-76
2021/11/17 07:53:14;;;;;;;13.23;4.28;;;;;;;;;;4943867;29;20020;-78
2021/11/17 07:55:42;;;;;;;16.17;4.25;;;;;;;;;;4942782;29;20407;-78
2021/11/17 07:58:09;;;;;;;14.45;4.63;;;;;;;;;;4943153;29;20044;-76
2021/11/17 08:00:38;;;;;;;13.85;3.85;;;;;;;;;;4943190;29;20024;-78
2021/11/17 08:03:04;;;;;;;19.50;4.38;;;;;;;;;;4945971;29;20024;-76
2021/11/17 08:05:30;;;;;;;16.05;4.10;;;;;;;;;;4946213;29;20534;-76
2021/11/17 08:07:57;;;;;;;15.50;4.93;;;;;;;;;;4946248;29;20036;-78
2021/11/17 08:10:25;;;;;;;20.63;4.68;;;;;;;;;;4946332;29;20046;-77
2021/11/17 08:12:52;;;;;;;14.52;4.03;;;;;;;;;;4946404;29;20027;-76
2021/11/17 08:15:18;;;;;;;16.42;4.50;;;;;;;;;;4946083;29;20024;-78
2021/11/17 08:17:44;;;;;;;12.05;3.13;;;;;;;;;;4946040;29;20031;-77
2021/11/17 08:20:12;;;;;;;16.13;4.18;;;;;;;;;;4946394;29;20028;-77
2021/11/17 08:22:39;;;;;;;18.15;4.43;;;;;;;;;;4946468;29;20387;-76
2021/11/17 08:25:05;;;;;;;15.20;4.68;;;;;;;;;;4946655;29;20030;-78
2021/11/17 08:27:31;;;;;;;19.45;4.82;;;;;;;;;;4946021;29;20032;-78
2021/11/17 08:29:58;;;;;;;16.88;4.40;;;;;;;;;;4946193;29;20403;-76
2021/11/17 08:32:24;;;;;;;17.23;4.25;;;;;;;;;;4946174;29;20491;-78
2021/11/17 08:34:51;;;;;;;13.48;3.95;;;;;;;;;;4948292;29;20035;-75
2021/11/17 08:37:17;;;;;;;13.15;4.38;;;;;;;;;;4938317;29;20118;-77
2021/11/17 08:39:46;;;;;;;20.48;4.70;;;;;;;;;;4939270;29;20026;-77
2021/11/17 08:42:13;;;;;;;20.42;4.97;;;;;;;;;;4939143;29;20019;-75
2021/11/17 08:44:40;;;;;;;11.73;4.15;;;;;;;;;;4941500;29;20032;-77
2021/11/17 08:47:07;;;;;;;21.48;5.22;;;;;;;;;;4943583;29;20119;-76
2021/11/17 08:49:34;;;;;;;11.98;4.70;;;;;;;;;;4942643;29;20083;-78
2021/11/17 08:52:00;;;;;;;16.35;4.85;;;;;;;;;;4926490;29;20028;-76
2021/11/17 08:54:27;;;;;;;21.25;4.70;;;;;;;;;;4940110;29;20103;-76
2021/11/17 08:56:53;;;;;;;15.20;5.15;;;;;;;;;;4942158;29;20032;-76
2021/11/17 08:59:19;;;;;;;22.60;5.65;;;;;;;;;;4939280;29;20058;-77
2021/11/17 09:01:45;;;;;;;14.00;4.72;;;;;;;;;;4940255;29;20031;-76
2021/11/17 09:04:11;;;;;;;19.55;5.38;;;;;;;;;;4939136;29;20439;-77
2021/11/17 09:06:38;;;;;;;20.55;5.70;;;;;;;;;;4939869;29;20031;-76
2021/11/17 09:09:06;;;;;;;22.05;5.43;;;;;;;;;;4937277;29;20403;-78
2021/11/17 09:11:33;;;;;;;19.40;4.57;;;;;;;;;;4935695;29;20403;-75
2021/11/17 09:14:00;;;;;;;20.60;4.20;;;;;;;;;;4925613;29;20192;-76
2021/11/17 09:16:30;;;;;;;23.85;4.47;;;;;;;;;;4917609;29;20032;-77
2021/11/17 09:18:57;;;;;;;21.17;7.38;;;;;;;;;;4901900;29;20522;-77
2021/11/17 09:21:23;;;;;;;15.40;4.55;;;;;;;;;;4922066;29;20032;-75
2021/11/17 09:23:51;;;;;;;21.05;4.93;;;;;;;;;;4940136;29;20122;-75
2021/11/17 09:26:21;;;;;;;18.13;4.30;;;;;;;;;;4946195;29;20033;-76
2021/11/17 09:28:47;;;;;;;14.43;4.80;;;;;;;;;;4926549;29;20039;-76
2021/11/17 09:31:14;;;;;;;15.93;5.25;;;;;;;;;;4920509;29;20146;-75
2021/11/17 09:33:41;;;;;;;19.35;6.93;;;;;;;;;;4929437;29;20042;-76
2021/11/17 09:36:07;;;;;;;23.00;6.30;;;;;;;;;;4934381;29;20038;-77
2021/11/17 09:38:33;;;;;;;14.63;5.03;;;;;;;;;;4935961;29;20070;-75
2021/11/17 09:41:01;;;;;;;16.40;4.40;;;;;;;;;;4936130;29;20023;-76
2021/11/17 09:43:39;;;;;;;16.52;3.83;;;;;;;;;;4938039;29;20043;-77
2021/11/17 09:46:06;;;;;;;14.13;4.18;;;;;;;;;;4919413;29;20399;-76
2021/11/17 09:48:35;;;;;;;18.25;4.68;;;;;;;;;;4937130;29;20027;-78
2021/11/17 09:51:21;;;;;;;14.27;3.88;;;;;;;;;;4944647;29;20055;-77
2021/11/17 09:54:15;;;;;;;18.92;5.25;;;;;;;;;;4941078;29;20042;-77
2021/11/17 09:56:47;;;;;;;18.00;4.70;;;;;;;;;;4941560;29;20035;-77
2021/11/17 09:59:19;;;;;;;14.98;5.63;;;;;;;;;;4943455;29;20151;-77
2021/11/17 10:01:50;;;;;;;14.98;5.13;;;;;;;;;;4941307;29;20024;-77
2021/11/17 10:04:16;;;;;;;17.73;5.05;;;;;;;;;;4936121;29;20027;-74
2021/11/17 10:15:04;;;;;;;18.02;4.65;;;;;;;;;;4922395;29;20032;-77
2021/11/17 10:17:41;;;;;;;12.77;4.00;;;;;;;;;;4906626;29;20028;-76
2021/11/17 10:20:16;;;;;;;14.65;4.88;;;;;;;;;;4905479;29;20036;-78
2021/11/17 10:22:45;;;;;;;10.95;4.15;;;;;;;;;;4924325;29;20024;-76
2021/11/17 10:25:13;;;;;;;14.57;5.43;;;;;;;;;;4941420;29;20027;-76
2021/11/17 10:27:47;;;;;;;16.52;5.30;;;;;;;;;;4942048;29;20031;-76
2021/11/17 10:30:20;;;;;;;17.65;4.10;;;;;;;;;;4924807;29;20024;-75
2021/11/17 10:32:49;;;;;;;16.60;5.15;;;;;;;;;;4942279;29;20028;-76
2021/11/17 10:35:26;;;;;;;15.25;3.97;;;;;;;;;;4941043;29;20051;-76
2021/11/17 10:38:19;;;;;;;19.58;4.80;;;;;;;;;;4942220;29;20024;-77
2021/11/17 10:40:53;;;;;;;15.75;4.25;;;;;;;;;;4938137;29;20059;-77
2021/11/17 10:43:25;;;;;;;20.17;4.53;;;;;;;;;;4942210;29;20031;-75
2021/11/17 10:45:56;;;;;;;13.20;4.30;;;;;;;;;;4943227;29;20439;-76
2021/11/17 10:48:22;;;;;;;15.45;4.82;;;;;;;;;;4942146;29;20487;-77
2021/11/17 10:50:48;;;;;;;15.98;4.70;;;;;;;;;;4924797;29;20019;-78
2021/11/17 10:53:28;;;;;;;19.75;5.75;;;;;;;;;;4940870;29;20036;-78
2021/11/17 10:55:55;;;;;;;18.85;4.40;;;;;;;;;;4941355;29;20027;-76
2021/11/17 10:58:23;;;;;;;13.35;4.70;;;;;;;;;;4941899;29;20127;-76
2021/11/17 11:01:00;;;;;;;11.05;4.43;;;;;;;;;;4941214;29;20020;-76
2021/11/17 11:03:31;;;;;;;20.92;5.32;;;;;;;;;;4923923;29;20119;-77
2021/11/17 11:05:57;;;;;;;22.35;4.95;;;;;;;;;;4941383;29;20032;-76
2021/11/17 11:08:35;;;;;;;15.88;4.93;;;;;;;;;;4941956;29;20032;-77
2021/11/17 11:11:02;;;;;;;18.25;4.25;;;;;;;;;;4941989;29;20087;-78
2021/11/17 11:13:58;;;;;;;12.13;3.92;;;;;;;;;;4941356;29;20083;-78
2021/11/17 11:16:30;;;;;;;18.75;3.90;;;;;;;;;;4921822;29;20039;-77
2021/11/17 11:19:12;;;;;;;17.60;4.18;;;;;;;;;;4942888;29;20036;-76
2021/11/17 11:21:38;;;;;;;14.25;5.03;;;;;;;;;;4941722;29;20020;-75
2021/11/17 11:24:04;;;;;;;11.35;3.80;;;;;;;;;;4941427;29;20070;-78
2021/11/17 11:26:31;;;;;;;15.48;3.75;;;;;;;;;;4941598;29;20031;-77
2021/11/17 11:29:00;;;;;;;31.73;6.32;;;;;;;;;;4941488;29;20083;-77
2021/11/17 11:31:30;;;;;;;14.85;5.57;;;;;;;;;;4941983;29;20035;-78
2021/11/17 11:33:56;;;;;;;14.88;4.00;;;;;;;;;;4942824;29;20028;-78
2021/11/17 11:36:22;;;;;;;16.55;3.88;;;;;;;;;;4943399;29;20040;-79
2021/11/17 11:39:11;;;;;;;19.73;3.80;;;;;;;;;;4946017;29;20387;-77
2021/11/17 11:41:46;;;;;;;13.65;4.75;;;;;;;;;;4930266;29;20127;-76
2021/11/17 11:44:12;;;;;;;;;;;;;;;;;;4946814;29;20038;-76
2021/11/17 11:46:38;;;;;;;;;;;;;;;;;;4946747;29;19938;-74
2021/11/17 11:49:10;;;;;;;13.77;4.72;;;;;;;;;;4946600;29;20290;-78
2021/11/17 11:51:48;;;;;;;8.02;3.55;;;;;;;;;;4944554;29;20072;-77
2021/11/17 11:54:16;;;;;;;20.95;4.57;;;;;;;;;;4945053;29;20032;-76
2021/11/17 11:56:45;;;;;;;12.88;4.80;;;;;;;;;;4945815;29;20032;-76
2021/11/17 11:59:13;;;;;;;17.25;4.45;;;;;;;;;;4944381;29;20047;-75
2021/11/17 12:01:41;;;;;;;13.27;3.97;;;;;;;;;;4945039;29;20119;-77
2021/11/17 12:04:13;;;;;;;14.90;4.80;;;;;;;;;;4945554;29;20028;-76
2021/11/17 12:06:42;;;;;;;18.20;4.82;;;;;;;;;;4945745;29;20020;-77
2021/11/17 12:09:13;;;;;;;15.32;4.70;;;;;;;;;;4945303;29;20024;-77
2021/11/17 12:11:59;;;;;;;21.38;5.20;;;;;;;;;;4945690;29;20032;-76
2021/11/17 12:14:37;;;;;;;17.55;4.35;;;;;;;;;;4945553;29;20479;-76
2021/11/17 12:17:05;;;;;;;17.80;4.20;;;;;;;;;;4946406;29;20059;-78
2021/11/17 12:19:31;;;;;;;13.18;4.25;;;;;;;;;;4946634;29;20024;-76
2021/11/17 12:22:05;;;;;;;12.00;3.70;;;;;;;;;;4946862;29;20038;-75
2021/11/17 12:24:34;;;;;;;16.80;3.70;;;;;;;;;;4947237;29;20027;-75
2021/11/17 12:27:05;;;;;;;12.25;3.50;;;;;;;;;;4947805;29;20054;-76
2021/11/17 12:29:43;;;;;;;15.05;3.75;;;;;;;;;;4949457;29;20024;-76
2021/11/17 12:32:16;;;;;;;10.77;3.50;;;;;;;;;;4948536;29;20024;-76
2021/11/17 12:34:45;;;;;;;15.15;3.33;;;;;;;;;;4954809;29;20028;-75
2021/11/17 12:37:18;;;;;;;15.45;4.40;;;;;;;;;;4954097;29;20023;-78
2021/11/17 12:39:54;;;;;;;13.50;3.45;;;;;;;;;;4954686;29;20494;-77
2021/11/17 12:42:40;;;;;;;12.95;3.30;;;;;;;;;;4954320;29;20076;-78
2021/11/17 12:45:15;;;;;;;12.50;3.85;;;;;;;;;;4954607;29;20030;-77
2021/11/17 12:47:47;;;;;;;17.02;4.43;;;;;;;;;;4954172;29;20024;-77
2021/11/17 12:50:39;;;;;;;11.90;4.43;;;;;;;;;;4953999;29;20035;-77
2021/11/17 12:53:28;;;;;;;9.82;3.47;;;;;;;;;;4953456;29;20060;-79
2021/11/17 12:55:58;;;;;;;9.45;3.40;;;;;;;;;;4933764;29;20054;-77
2021/11/17 12:58:27;;;;;;;8.68;3.65;;;;;;;;;;4950230;29;20051;-78
2021/11/17 13:00:58;;;;;;;10.70;3.78;;;;;;;;;;4932999;29;20039;-77
2021/11/17 13:03:30;;;;;;;10.00;3.53;;;;;;;;;;4950959;29;20043;-78
2021/11/17 13:06:23;;;;;;;7.10;2.95;;;;;;;;;;4950789;29;20039;-77
2021/11/17 13:09:05;;;;;;;14.48;4.55;;;;;;;;;;4946468;29;20099;-79
2021/11/17 13:11:32;;;;;;;10.32;2.92;;;;;;;;;;4952011;29;20039;-78
2021/11/17 13:13:59;;;;;;;15.18;3.35;;;;;;;;;;4948705;29;20095;-78
2021/11/17 13:16:31;;;;;;;15.93;3.22;;;;;;;;;;4944132;29;20087;-78
2021/11/17 13:18:59;;;;;;;12.23;3.40;;;;;;;;;;4943258;29;20042;-78
2021/11/17 13:21:31;;;;;;;11.75;3.75;;;;;;;;;;4943856;29;20075;-78
2021/11/17 13:23:57;;;;;;;7.45;3.60;;;;;;;;;;4926328;29;20059;-78
2021/11/17 13:26:31;;;;;;;12.02;3.78;;;;;;;;;;4943418;29;20075;-78
2021/11/17 13:28:57;;;;;;;6.28;3.10;;;;;;;;;;4925671;29;20454;-77
2021/11/17 13:31:29;;;;;;;13.07;3.58;;;;;;;;;;4942657;29;20062;-78
2021/11/17 13:34:01;;;;;;;11.38;3.40;;;;;;;;;;4943348;29;20031;-78
2021/11/17 13:36:54;;;;;;;10.88;3.17;;;;;;;;;;4943805;29;20095;-78
2021/11/17 13:39:22;;;;;;;15.88;4.03;;;;;;;;;;4938696;29;20095;-77
2021/11/17 13:41:50;;;;;;;19.55;3.60;;;;;;;;;;4942128;29;20079;-77
2021/11/17 13:44:18;;;;;;;16.15;3.40;;;;;;;;;;4925035;29;20028;-77
2021/11/17 13:47:13;;;;;;;12.80;4.00;;;;;;;;;;4943162;29;20120;-78
2021/11/17 13:49:41;;;;;;;21.02;4.28;;;;;;;;;;4921853;29;20128;-77
2021/11/17 13:52:08;;;;;;;10.43;3.78;;;;;;;;;;4942275;29;20107;-78
2021/11/17 13:54:34;;;;;;;16.95;3.42;;;;;;;;;;4941835;29;20023;-78
2021/11/17 13:57:02;;;;;;;17.52;4.15;;;;;;;;;;4940985;29;20059;-77
2021/11/17 13:59:28;;;;;;;17.02;4.55;;;;;;;;;;4941069;29;20103;-78
2021/11/17 14:01:56;;;;;;;15.20;3.50;;;;;;;;;;4941639;29;20030;-78
2021/11/17 14:04:22;;;;;;;12.07;3.63;;;;;;;;;;4941551;29;20024;-78
2021/11/17 14:06:49;;;;;;;14.60;3.38;;;;;;;;;;4924872;29;20020;-77
2021/11/17 14:09:15;;;;;;;12.10;4.30;;;;;;;;;;4941499;29;20028;-77
2021/11/17 14:11:44;;;;;;;10.15;3.92;;;;;;;;;;4943356;29;20031;-76
2021/11/17 14:14:10;;;;;;;11.48;4.95;;;;;;;;;;4944870;29;20119;-76
2021/11/17 14:16:36;;;;;;;11.93;3.35;;;;;;;;;;4925508;29;20032;-75
2021/11/17 14:19:03;;;;;;;12.77;3.95;;;;;;;;;;4943910;29;20475;-75
2021/11/17 14:21:29;;;;;;;12.95;4.32;;;;;;;;;;4946293;29;20027;-76
2021/11/17 14:23:56;;;;;;;11.88;3.95;;;;;;;;;;4949598;29;20024;-76
2021/11/17 14:26:22;;;;;;;13.85;3.78;;;;;;;;;;4949111;29;20020;-75
2021/11/17 14:28:58;;;;;;;14.50;4.05;;;;;;;;;;4949129;29;20028;-74
2021/11/17 14:31:27;;;;;;;13.32;3.63;;;;;;;;;;4945179;29;20027;-76
2021/11/17 14:33:58;;;;;;;8.35;3.20;;;;;;;;;;4942715;29;20107;-76
2021/11/17 14:36:25;;;;;;;11.02;5.05;;;;;;;;;;4941830;29;20034;-75
2021/11/17 14:38:52;;;;;;;12.65;3.95;;;;;;;;;;4941030;29;20086;-77
2021/11/17 14:41:19;;;;;;;11.95;4.07;;;;;;;;;;4940772;29;20075;-77
2021/11/17 14:43:45;;;;;;;15.23;4.57;;;;;;;;;;4924924;29;20046;-76
2021/11/17 14:46:12;;;;;;;12.80;4.72;;;;;;;;;;4941930;29;20433;-77
2021/11/17 14:48:38;;;;;;;16.00;5.22;;;;;;;;;;4940342;29;20027;-76
2021/11/17 14:51:05;;;;;;;11.07;5.68;;;;;;;;;;4922078;29;20040;-75
2021/11/17 14:53:31;;;;;;;13.20;5.00;;;;;;;;;;4921627;29;20052;-75
2021/11/17 14:55:57;;;;;;;18.40;5.05;;;;;;;;;;4920054;29;20032;-76
2021/11/17 14:58:24;;;;;;;22.23;5.22;;;;;;;;;;4922072;29;20068;-75
2021/11/17 15:00:52;;;;;;;11.93;6.55;;;;;;;;;;4921347;29;20440;-76
2021/11/17 15:03:18;;;;;;;12.63;4.75;;;;;;;;;;4923435;29;20062;-76
2021/11/17 15:05:44;;;;;;;19.45;5.80;;;;;;;;;;4922927;29;20038;-79
2021/11/17 15:08:11;;;;;;;9.55;4.60;;;;;;;;;;4923256;29;20031;-76
2021/11/17 15:10:37;;;;;;;19.08;6.65;;;;;;;;;;4925476;29;20522;-73
2021/11/17 15:13:03;;;;;;;14.40;5.05;;;;;;;;;;4929475;29;20088;-77
2021/11/17 15:15:35;;;;;;;13.13;4.95;;;;;;;;;;4933635;29;20038;-76
2021/11/17 15:18:01;;;;;;;9.65;4.03;;;;;;;;;;4944342;29;20036;-77
2021/11/17 15:20:45;;;;;;;17.52;5.25;;;;;;;;;;4940640;29;20107;-77
2021/11/17 15:23:12;;;;;;;17.30;5.45;;;;;;;;;;4925859;29;20038;-74
2021/11/17 15:25:40;;;;;;;14.15;3.80;;;;;;;;;;4940274;29;20043;-76
2021/11/17 15:28:08;;;;;;;15.90;4.45;;;;;;;;;;4927412;29;20021;-77
2021/11/17 15:30:36;;;;;;;11.13;3.63;;;;;;;;;;4929385;29;20097;-74
2021/11/17 15:33:04;;;;;;;13.82;4.65;;;;;;;;;;4927066;29;20035;-75
2021/11/17 15:35:31;;;;;;;27.42;7.75;;;;;;;;;;4927873;29;20028;-76
2021/11/17 15:37:58;;;;;;;20.23;7.15;;;;;;;;;;4923478;29;20555;-76
2021/11/17 15:40:25;;;;;;;21.80;8.05;;;;;;;;;;4926091;29;20406;-76
2021/11/17 15:42:53;;;;;;;16.80;7.30;;;;;;;;;;4926069;29;20038;-74
2021/11/17 15:45:20;;;;;;;19.15;8.75;;;;;;;;;;4939548;29;20025;-77
2021/11/17 15:47:47;;;;;;;17.15;4.35;;;;;;;;;;4944896;29;20024;-77
2021/11/17 15:50:19;;;;;;;14.38;4.40;;;;;;;;;;4941096;29;20055;-76
2021/11/17 15:52:46;;;;;;;14.88;4.35;;;;;;;;;;4937386;29;20091;-77
2021/11/17 15:55:13;;;;;;;14.23;4.13;;;;;;;;;;4936580;29;20058;-76
2021/11/17 15:57:39;;;;;;;14.48;4.93;;;;;;;;;;4921529;29;20052;-77
2021/11/17 16:00:09;;;;;;;11.98;3.35;;;;;;;;;;4942120;29;20023;-76
2021/11/17 16:02:35;;;;;;;16.05;4.45;;;;;;;;;;4944704;29;20130;-76
2021/11/17 16:05:02;;;;;;;16.15;4.07;;;;;;;;;;4937943;29;20055;-76
2021/11/17 16:07:28;;;;;;;15.38;4.25;;;;;;;;;;4938783;29;20495;-77
2021/11/17 16:09:57;;;;;;;9.30;4.07;;;;;;;;;;4929872;29;20032;-77
2021/11/17 16:12:24;;;;;;;15.15;4.90;;;;;;;;;;4943028;29;20036;-77
2021/11/17 16:14:51;;;;;;;15.93;4.63;;;;;;;;;;4927027;29;20031;-78
2021/11/17 16:17:17;;;;;;;13.85;4.90;;;;;;;;;;4944570;29;20086;-76
2021/11/17 16:19:48;;;;;;;15.32;4.30;;;;;;;;;;4945133;29;20031;-76
2021/11/17 16:22:18;;;;;;;13.95;5.63;;;;;;;;;;4943039;29;20538;-76
2021/11/17 16:27:30;;;;;;;15.80;4.63;;;;;;;;;;4943127;29;20082;-77
2021/11/17 16:29:56;;;;;;;15.90;4.45;;;;;;;;;;4943833;29;20115;-76
2021/11/17 16:32:23;;;;;;;16.45;5.85;;;;;;;;;;4939826;29;20032;-76
2021/11/17 16:34:51;;;;;;;15.30;7.63;;;;;;;;;;4936734;29;20130;-75
2021/11/17 16:37:18;;;;;;;22.77;8.40;;;;;;;;;;4939502;29;20043;-75
2021/11/17 16:39:44;;;;;;;33.88;12.25;;;;;;;;;;4938544;29;20095;-77
2021/11/17 16:42:10;;;;;;;25.38;8.93;;;;;;;;;;4919665;29;20386;-73
2021/11/17 16:44:36;;;;;;;20.15;7.82;;;;;;;;;;4938640;29;20028;-75
2021/11/17 16:47:03;;;;;;;21.20;7.85;;;;;;;;;;4938728;29;20027;-76
2021/11/17 16:49:29;;;;;;;18.27;6.47;;;;;;;;;;4939412;29;20031;-75
2021/11/17 16:52:26;;;;;;;13.85;5.60;;;;;;;;;;4940182;29;20074;-76
2021/11/17 16:54:56;;;;;;;13.18;5.93;;;;;;;;;;4920469;29;20090;-77
2021/11/17 16:57:23;;;;;;;23.30;6.45;;;;;;;;;;4939244;29;20070;-77
2021/11/17 16:59:50;;;;;;;11.85;6.07;;;;;;;;;;4937386;29;20390;-76
2021/11/17 17:02:16;;;;;;;20.55;6.68;;;;;;;;;;4939420;29;20028;-75
2021/11/17 17:04:43;;;;;;;17.55;6.18;;;;;;;;;;4940714;29;20024;-75
2021/11/17 17:07:10;;;;;;;18.05;6.88;;;;;;;;;;4938346;29;20028;-77
2021/11/17 17:09:37;;;;;;;14.77;4.78;;;;;;;;;;4944261;29;20032;-76
2021/11/17 17:12:04;;;;;;;14.45;7.35;;;;;;;;;;4942194;29;20038;-76
2021/11/17 17:14:30;;;;;;;203.73;117.88;;;;;;;;;;4934890;29;20031;-74
2021/11/17 17:16:56;;;;;;;191.02;103.47;;;;;;;;;;4934070;29;20028;-75
2021/11/17 17:19:22;;;;;;;769.03;506.40;;;;;;;;;;4934204;29;20038;-74
2021/11/17 17:21:49;;;;;;;643.47;416.30;;;;;;;;;;4934719;29;20027;-76
2021/11/17 17:24:15;;;;;;;585.05;379.67;;;;;;;;;;4935127;29;20058;-78
2021/11/17 17:26:42;;;;;;;502.92;310.17;;;;;;;;;;4934187;29;20108;-75